createdAt,value
2023-02-02T00:00:47.088Z,23.63
2023-02-02T00:03:16.355Z,29.98
2023-02-02T00:05:47.480Z,26.27
2023-02-02T00:08:15.079Z,31.35
2023-02-02T00:10:43.030Z,24.52
2023-02-02T00:13:10.592Z,32.45
2023-02-02T00:15:38.164Z,24.85
2023-02-02T00:18:05.832Z,25.55
2023-02-02T00:20:35.620Z,21.90
2023-02-02T00:23:04.242Z,33.22
2023-02-02T00:25:32.206Z,21.27
2023-02-02T00:27:59.774Z,22.95
2023-02-02T00:30:27.377Z,25.00
2023-02-02T00:32:54.994Z,32.63
2023-02-02T00:35:23.025Z,36.22
2023-02-02T00:37:52.059Z,26.95
2023-02-02T00:40:19.676Z,16.48
2023-02-02T00:42:50.340Z,24.40
2023-02-02T00:45:17.104Z,24.42
2023-02-02T00:47:45.250Z,20.05
2023-02-02T00:50:14.011Z,32.00
2023-02-02T00:52:41.572Z,24.10
2023-02-02T00:55:11.328Z,17.27
2023-02-02T00:57:39.034Z,17.42
2023-02-02T01:00:07.936Z,15.43
2023-02-02T01:02:35.636Z,33.50
2023-02-02T01:05:03.143Z,18.42
2023-02-02T01:07:30.712Z,24.38
2023-02-02T01:09:58.348Z,22.25
2023-02-02T01:12:27.305Z,28.75
2023-02-02T04:57:49.053Z,30.17
2023-02-02T05:00:17.074Z,31.13
2023-02-02T05:02:44.829Z,26.30
2023-02-02T05:05:13.253Z,28.77
2023-02-02T05:07:41.696Z,21.88
2023-02-02T05:10:09.753Z,28.08
2023-02-02T05:12:39.358Z,41.35
2023-02-02T05:15:09.010Z,28.15
2023-02-02T05:17:36.588Z,22.88
2023-02-02T05:20:04.125Z,28.10
2023-02-02T05:22:31.711Z,30.92
2023-02-02T05:24:59.253Z,29.67
2023-02-02T05:27:26.758Z,33.78
2023-02-02T05:29:58.102Z,30.13
2023-02-02T05:32:28.101Z,27.38
2023-02-02T05:34:55.670Z,30.05
2023-02-02T05:37:23.164Z,33.25
2023-02-02T05:39:52.202Z,27.13
2023-02-02T05:42:22.212Z,31.00
2023-02-02T05:44:49.720Z,23.85
2023-02-02T05:47:17.256Z,30.15
2023-02-02T05:49:46.173Z,28.15
2023-02-02T05:52:15.797Z,33.42
2023-02-02T05:54:43.365Z,34.17
2023-02-02T05:57:13.234Z,37.30
2023-02-02T05:59:40.777Z,46.65
2023-02-02T06:02:08.626Z,41.92
2023-02-02T06:04:36.503Z,40.33
2023-02-02T06:07:05.493Z,42.72
2023-02-02T06:09:36.648Z,29.75
2023-02-02T06:12:04.800Z,21.73
2023-02-02T06:14:32.619Z,36.53
2023-02-02T06:17:00.152Z,28.65
2023-02-02T06:19:29.925Z,31.35
2023-02-02T06:21:57.999Z,31.00
2023-02-02T06:24:27.935Z,39.40
2023-02-02T06:26:55.527Z,32.83
2023-02-02T06:29:23.234Z,39.38
2023-02-02T06:31:50.847Z,33.00
2023-02-02T06:34:18.604Z,43.78
2023-02-02T06:36:46.303Z,36.50
2023-02-02T06:39:13.857Z,41.03
2023-02-02T06:41:44.789Z,28.38
2023-02-02T06:44:12.361Z,37.15
2023-02-02T06:46:40.386Z,36.35
2023-02-02T06:49:08.152Z,35.25
2023-02-02T06:51:35.708Z,40.47
2023-02-02T06:54:03.925Z,35.53
2023-02-02T06:56:32.362Z,43.85
2023-02-02T06:59:01.552Z,33.25
2023-02-02T07:01:29.125Z,31.52
2023-02-02T07:03:56.869Z,40.63
2023-02-02T07:06:25.687Z,24.90
2023-02-02T07:09:01.705Z,25.70
2023-02-02T07:11:35.225Z,23.30
2023-02-02T07:14:06.473Z,21.50
2023-02-02T07:16:34.068Z,20.05
2023-02-02T07:19:01.975Z,21.00
2023-02-02T07:21:35.467Z,23.33
2023-02-02T07:24:03.542Z,27.48
2023-02-02T07:26:31.030Z,18.17
2023-02-02T07:28:58.584Z,23.85
2023-02-02T07:31:28.066Z,21.58
2023-02-02T07:33:55.864Z,23.95
2023-02-02T07:36:24.573Z,30.02
2023-02-02T07:38:54.689Z,30.52
2023-02-02T07:41:22.992Z,23.15
2023-02-02T07:43:51.148Z,21.95
2023-02-02T07:46:19.430Z,19.38
2023-02-02T07:48:48.626Z,22.45
2023-02-02T07:51:17.424Z,31.00
2023-02-02T07:53:45.703Z,18.58
2023-02-02T07:56:14.254Z,25.30
2023-02-02T07:58:41.914Z,17.63
2023-02-02T08:01:10.247Z,25.90
2023-02-02T08:03:38.031Z,17.90
2023-02-02T08:06:12.279Z,18.80
2023-02-02T08:08:40.347Z,29.70
2023-02-02T08:11:09.556Z,26.75
2023-02-02T08:13:37.269Z,25.35
2023-02-02T08:16:05.019Z,23.05
2023-02-02T08:18:33.637Z,17.38
2023-02-02T08:21:01.509Z,18.30
2023-02-02T08:23:31.386Z,17.52
2023-02-02T08:26:06.833Z,19.83
2023-02-02T08:28:35.342Z,22.60
2023-02-02T08:31:05.177Z,23.80
2023-02-02T08:33:33.103Z,16.88
2023-02-02T08:36:00.710Z,26.98
2023-02-02T08:38:28.297Z,19.35
2023-02-02T08:40:57.543Z,19.33
2023-02-02T08:43:25.038Z,22.83
2023-02-02T08:46:02.186Z,18.17
2023-02-02T08:48:32.527Z,19.05
2023-02-02T08:51:03.014Z,24.98
2023-02-02T08:53:30.864Z,30.10
2023-02-02T08:56:00.687Z,52.58
2023-02-02T08:58:28.422Z,42.13
2023-02-02T09:00:56.460Z,32.35
2023-02-02T09:03:24.032Z,20.92
2023-02-02T09:05:51.668Z,22.80
2023-02-02T09:08:19.221Z,17.13
2023-02-02T09:10:47.962Z,23.48
2023-02-02T09:13:16.819Z,24.88
2023-02-02T09:15:44.344Z,20.00
2023-02-02T09:18:11.900Z,19.20
2023-02-02T09:20:41.733Z,16.50
2023-02-02T09:23:10.031Z,17.30
2023-02-02T09:25:37.489Z,18.85
2023-02-02T09:28:05.097Z,15.13
2023-02-02T09:30:36.215Z,16.33
2023-02-02T09:33:03.733Z,20.13
2023-02-02T09:35:31.220Z,19.45
2023-02-02T09:37:58.753Z,21.35
2023-02-02T09:40:27.934Z,22.30
2023-02-02T09:43:00.231Z,20.77
2023-02-02T09:45:33.265Z,18.52
2023-02-02T09:48:08.767Z,22.77
2023-02-02T09:50:40.871Z,21.27
2023-02-02T09:53:11.241Z,21.90
2023-02-02T09:55:40.060Z,23.00
2023-02-02T09:58:09.173Z,19.83
2023-02-02T10:00:39.246Z,28.40
2023-02-02T10:03:13.171Z,20.83
2023-02-02T10:05:45.888Z,17.60
2023-02-02T10:08:25.959Z,16.35
2023-02-02T10:11:01.633Z,22.23
2023-02-02T10:13:32.876Z,22.17
2023-02-02T10:16:04.191Z,24.42
2023-02-02T10:18:38.181Z,15.07
2023-02-02T10:21:07.969Z,23.45
2023-02-02T10:23:36.964Z,31.27
2023-02-02T10:26:06.755Z,23.05
2023-02-02T10:28:41.148Z,18.13
2023-02-02T10:31:12.356Z,16.70
2023-02-02T10:33:41.471Z,19.83
2023-02-02T10:36:17.203Z,15.30
2023-02-02T10:38:48.808Z,13.45
2023-02-02T13:38:47.486Z,28.38
2023-02-02T13:41:16.153Z,20.27
2023-02-02T13:43:49.049Z,23.58
2023-02-02T13:46:22.080Z,25.48
2023-02-02T13:48:54.660Z,23.20
2023-02-02T13:51:46.281Z,26.70
2023-02-02T13:54:33.970Z,26.00
2023-02-02T13:57:07.883Z,29.95
2023-02-02T13:59:51.304Z,30.52
2023-02-02T14:02:23.786Z,43.13
2023-02-02T14:04:55.935Z,32.38
2023-02-02T14:07:38.878Z,31.75
2023-02-02T14:10:21.349Z,35.38
2023-02-02T14:12:49.540Z,40.10
2023-02-02T14:15:17.946Z,34.47
2023-02-02T14:17:54.852Z,29.55
2023-02-02T14:20:46.359Z,32.10
2023-02-02T14:23:32.356Z,34.72
2023-02-02T14:26:08.378Z,27.40
2023-02-02T14:28:47.067Z,34.53
2023-02-02T14:31:38.879Z,30.45
2023-02-02T14:34:16.722Z,32.10
2023-02-02T14:36:52.950Z,28.90
2023-02-02T14:39:22.657Z,24.98
2023-02-02T14:42:19.163Z,31.90
2023-02-02T14:45:05.046Z,24.30
2023-02-02T14:47:58.467Z,31.10
2023-02-02T14:50:38.203Z,27.30
2023-02-02T14:53:08.777Z,26.40
2023-02-02T14:55:38.831Z,32.42
2023-02-02T14:58:08.499Z,27.10
2023-02-02T15:00:39.758Z,35.65
2023-02-02T15:03:31.443Z,38.90
2023-02-02T15:06:03.418Z,35.80
2023-02-02T15:08:34.760Z,37.25
2023-02-02T15:11:26.877Z,43.90
2023-02-02T15:14:08.913Z,32.40
2023-02-02T15:16:38.802Z,26.33
2023-02-02T15:19:11.133Z,37.05
2023-02-02T15:21:46.634Z,31.35
2023-02-02T15:24:21.702Z,35.38
2023-02-02T15:26:50.347Z,40.85
2023-02-02T15:29:23.097Z,42.72
2023-02-02T15:31:58.056Z,37.08
2023-02-02T15:34:26.772Z,44.03
2023-02-02T15:37:04.521Z,38.42
2023-02-02T15:39:33.927Z,43.13
2023-02-02T15:42:20.007Z,38.92
2023-02-02T15:44:54.999Z,39.03
2023-02-02T15:47:27.545Z,38.92
2023-02-02T15:49:59.559Z,36.67
2023-02-02T15:52:31.896Z,33.60
2023-02-02T15:55:00.592Z,37.83
2023-02-02T15:57:34.489Z,36.45
2023-02-02T16:00:22.519Z,36.72
2023-02-02T16:02:57.229Z,45.53
2023-02-02T16:05:25.795Z,56.10
2023-02-02T16:08:04.962Z,56.00
2023-02-02T16:10:34.242Z,52.08
2023-02-02T16:13:02.078Z,67.70
2023-02-02T16:15:36.708Z,50.50
2023-02-02T16:18:05.485Z,51.83
2023-02-02T16:20:34.515Z,54.83
2023-02-02T16:23:06.873Z,49.17
2023-02-02T16:25:38.857Z,45.15
2023-02-02T16:28:06.945Z,38.50
2023-02-02T16:30:39.959Z,44.92
2023-02-02T16:33:22.603Z,39.42
2023-02-02T16:35:50.613Z,46.13
2023-02-02T16:38:24.532Z,53.05
2023-02-02T16:41:08.965Z,48.10
2023-02-02T16:46:19.753Z,55.60
2023-02-02T16:48:59.191Z,61.30
2023-02-02T16:51:33.902Z,58.42
2023-02-02T16:54:04.989Z,56.22
2023-02-02T16:56:41.178Z,45.55
2023-02-02T16:59:21.453Z,42.63
2023-02-02T17:01:56.236Z,45.10
2023-02-02T17:04:27.436Z,41.65
2023-02-02T17:06:58.593Z,42.75
2023-02-02T17:09:29.016Z,37.40
2023-02-02T17:12:02.096Z,41.22
2023-02-02T17:14:34.137Z,45.80
2023-02-02T17:17:08.173Z,44.47
2023-02-02T17:19:37.757Z,47.10
2023-02-02T17:22:08.900Z,42.72
2023-02-02T17:24:37.058Z,36.88
2023-02-02T17:27:04.973Z,36.80
2023-02-02T17:29:44.216Z,44.80
2023-02-02T17:32:17.268Z,40.95
2023-02-02T17:34:47.740Z,34.75
2023-02-02T17:37:15.692Z,35.60
2023-02-02T17:39:45.557Z,35.00
2023-02-02T17:42:18.690Z,40.80
2023-02-02T17:44:47.017Z,35.07
2023-02-02T17:47:16.184Z,32.90
2023-02-02T17:49:43.701Z,37.15
2023-02-02T17:52:12.173Z,33.85
2023-02-02T17:54:39.755Z,29.92
2023-02-02T17:57:07.235Z,41.28
2023-02-02T17:59:34.753Z,32.40
2023-02-02T18:02:03.015Z,35.53
2023-02-02T18:04:32.264Z,42.05
2023-02-02T18:06:59.797Z,36.80
2023-02-02T18:09:28.267Z,39.40
2023-02-02T18:11:55.767Z,38.17
2023-02-02T18:14:23.430Z,43.05
2023-02-02T18:16:51.145Z,40.78
2023-02-02T18:19:19.158Z,38.13
2023-02-02T18:21:48.543Z,45.30
2023-02-02T18:24:16.396Z,45.83
2023-02-02T18:26:44.098Z,44.05
2023-02-02T18:29:11.682Z,46.75
2023-02-02T18:31:42.344Z,43.72
2023-02-02T18:34:13.199Z,39.42
2023-02-02T18:36:41.397Z,47.60
2023-02-02T18:39:15.352Z,41.05
2023-02-02T18:41:43.138Z,42.67
2023-02-02T18:44:13.380Z,36.88
2023-02-02T18:46:41.002Z,44.88
2023-02-02T18:49:10.078Z,50.20
2023-02-02T18:51:38.010Z,45.33
2023-02-02T18:54:06.243Z,40.78
2023-02-02T18:56:36.300Z,47.60
2023-02-02T18:59:04.029Z,44.95
2023-02-02T19:01:32.008Z,37.72
2023-02-02T19:04:00.280Z,41.58
2023-02-02T19:06:46.161Z,40.67
2023-02-02T19:09:17.209Z,39.13
2023-02-02T19:11:48.572Z,40.67
2023-02-02T19:14:17.658Z,43.30
2023-02-02T19:16:46.447Z,38.35
2023-02-02T19:19:17.895Z,39.03
2023-02-02T19:21:45.564Z,39.63
2023-02-02T19:24:16.331Z,35.45
2023-02-02T19:26:50.669Z,45.05
2023-02-02T19:29:20.338Z,45.08
2023-02-02T19:31:52.104Z,37.38
2023-02-02T19:34:22.122Z,41.05
2023-02-02T19:36:52.802Z,45.85
2023-02-02T19:39:24.772Z,50.90
2023-02-02T19:41:58.284Z,45.35
2023-02-02T19:44:29.946Z,44.33
2023-02-02T19:46:57.995Z,39.88
2023-02-02T19:49:28.219Z,45.00
2023-02-02T19:51:56.282Z,50.47
2023-02-02T19:54:29.037Z,50.65
2023-02-02T19:56:59.456Z,54.80
2023-02-02T19:59:28.932Z,55.95
2023-02-02T20:01:57.059Z,69.50
2023-02-02T20:04:24.573Z,65.03
2023-02-02T20:06:59.541Z,73.25
2023-02-02T20:09:28.832Z,71.30
2023-02-02T20:11:58.603Z,67.25
2023-02-02T20:14:29.401Z,79.78
2023-02-02T20:17:02.380Z,70.05
2023-02-02T20:19:33.662Z,61.65
2023-02-02T20:22:06.728Z,68.30
2023-02-02T20:24:36.982Z,59.15
2023-02-02T20:27:12.223Z,65.80
2023-02-02T20:29:45.033Z,55.75
2023-02-02T20:32:18.261Z,48.63
2023-02-02T20:34:46.235Z,51.83
2023-02-02T20:37:22.361Z,46.00
2023-02-02T20:39:51.098Z,48.35
2023-02-02T20:42:20.223Z,38.58
2023-02-02T20:44:47.948Z,43.03
2023-02-02T20:47:18.232Z,41.05
2023-02-02T20:49:47.754Z,44.83
2023-02-02T20:52:22.598Z,40.75
2023-02-02T20:54:50.875Z,44.17
2023-02-02T20:57:19.991Z,43.63
2023-02-02T20:59:47.875Z,40.15
2023-02-02T21:02:21.698Z,44.42
2023-02-02T21:04:49.733Z,46.42
2023-02-02T21:07:18.479Z,41.00
2023-02-02T21:09:46.639Z,45.03
2023-02-02T21:12:14.280Z,51.78
2023-02-02T21:14:45.019Z,47.58
2023-02-02T21:17:15.561Z,45.83
2023-02-02T21:19:43.698Z,41.95
2023-02-02T21:22:11.586Z,42.92
2023-02-02T21:24:39.453Z,43.58
2023-02-02T21:27:07.613Z,42.88
2023-02-02T21:29:36.411Z,39.47
2023-02-02T21:32:05.859Z,39.13
2023-02-02T21:34:34.359Z,33.95
2023-02-02T21:37:01.943Z,39.53
2023-02-02T21:39:32.523Z,37.97
2023-02-02T21:42:11.593Z,33.55
2023-02-02T21:44:40.128Z,40.25
2023-02-02T21:47:20.905Z,43.72
2023-02-02T21:49:48.919Z,39.10
2023-02-02T21:52:18.249Z,39.35
2023-02-02T21:54:46.507Z,37.17
2023-02-02T21:57:17.876Z,39.55
2023-02-02T21:59:46.778Z,44.72
2023-02-02T22:02:35.005Z,42.83
2023-02-02T22:05:12.513Z,43.10
2023-02-02T22:07:41.039Z,46.03
2023-02-02T22:10:16.987Z,41.88
2023-02-02T22:12:50.839Z,42.35
2023-02-02T22:15:21.700Z,48.53
2023-02-02T22:17:49.282Z,51.20
2023-02-02T22:20:30.486Z,56.15
2023-02-02T22:22:58.088Z,47.92
2023-02-02T22:25:29.318Z,36.53
2023-02-02T22:27:58.491Z,34.70
2023-02-02T22:30:28.394Z,39.05
2023-02-02T22:32:56.508Z,44.83
2023-02-02T22:35:25.620Z,35.75
2023-02-02T22:37:53.770Z,35.25
2023-02-02T22:40:22.742Z,34.10
2023-02-02T22:42:50.346Z,41.50
2023-02-02T22:45:18.204Z,40.70
2023-02-02T22:47:47.659Z,36.30
2023-02-02T22:50:15.556Z,39.05
2023-02-02T22:52:45.510Z,38.75
2023-02-02T22:55:13.845Z,36.50
2023-02-02T22:57:41.371Z,34.97
2023-02-02T23:00:13.019Z,36.28
2023-02-02T23:02:40.848Z,35.85
2023-02-02T23:05:09.291Z,32.45
2023-02-02T23:07:36.969Z,43.58
2023-02-02T23:10:06.997Z,38.33
2023-02-02T23:12:39.042Z,33.33
2023-02-02T23:15:07.466Z,36.92
2023-02-02T23:17:35.884Z,42.15
2023-02-02T23:20:04.949Z,40.15
2023-02-02T23:22:32.706Z,37.50
2023-02-02T23:25:00.317Z,38.42
2023-02-02T23:27:29.376Z,40.15
2023-02-02T23:29:56.897Z,34.42
2023-02-02T23:32:24.435Z,41.22
2023-02-02T23:34:51.987Z,46.30
2023-02-02T23:37:19.626Z,39.47
2023-02-02T23:39:49.060Z,39.35
2023-02-02T23:42:16.675Z,38.90
2023-02-02T23:44:45.740Z,36.55
2023-02-02T23:47:13.280Z,39.83
2023-02-02T23:49:40.930Z,40.60
2023-02-02T23:52:11.236Z,39.50
2023-02-02T23:54:43.728Z,40.63
2023-02-02T23:57:11.641Z,35.83
2023-02-02T23:59:39.490Z,40.10
